createdAt,value
2023-04-28T00:03:56.199Z,5.30
2023-04-28T00:08:49.594Z,5.85
2023-04-28T00:13:43.131Z,4.63
2023-04-28T00:18:36.872Z,6.22
2023-04-28T00:23:30.795Z,5.90
2023-04-28T00:28:33.344Z,6.20
2023-04-28T00:33:27.768Z,5.47
2023-04-28T00:38:21.531Z,5.57
2023-04-28T00:43:15.713Z,5.50
2023-04-28T00:48:10.253Z,5.93
2023-04-28T00:53:04.559Z,5.82
2023-04-28T00:57:58.153Z,5.93
2023-04-28T01:02:53.259Z,6.03
2023-04-28T01:07:47.695Z,5.28
2023-04-28T01:12:40.539Z,5.28
2023-04-28T01:17:33.359Z,5.85
2023-04-28T01:22:28.881Z,5.63
2023-04-28T01:27:24.960Z,4.43
2023-04-28T01:32:18.478Z,4.80
2023-04-28T01:37:12.001Z,5.63
2023-04-28T01:42:05.840Z,5.05
2023-04-28T01:46:59.225Z,4.43
2023-04-28T01:51:52.796Z,4.40
2023-04-28T01:56:46.972Z,4.47
2023-04-28T02:01:42.025Z,4.40
2023-04-28T02:06:35.560Z,4.82
2023-04-28T02:11:29.054Z,5.45
2023-04-28T02:16:23.722Z,5.90
2023-04-28T02:21:16.567Z,6.90
2023-04-28T02:26:11.227Z,6.63
2023-04-28T02:31:11.568Z,6.30
2023-04-28T02:36:05.625Z,6.68
2023-04-28T02:41:00.610Z,6.20
2023-04-28T02:45:53.894Z,6.28
2023-04-28T02:50:47.439Z,6.47
2023-04-28T02:55:40.976Z,6.07
2023-04-28T03:00:34.650Z,6.60
2023-04-28T03:05:27.625Z,6.95
2023-04-28T03:10:21.167Z,6.20
2023-04-28T03:15:14.474Z,6.18
2023-04-28T03:20:07.934Z,6.30
2023-04-28T03:25:00.758Z,6.55
2023-04-28T03:29:56.800Z,5.68
2023-04-28T03:34:49.714Z,5.25
2023-04-28T03:39:43.266Z,6.50
2023-04-28T03:44:37.009Z,5.63
2023-04-28T03:49:32.946Z,5.72
2023-04-28T03:54:26.859Z,5.72
2023-04-28T03:59:21.614Z,6.40
2023-04-28T04:04:16.263Z,6.22
2023-04-28T04:09:10.442Z,6.47
2023-04-28T04:14:04.978Z,5.80
2023-04-28T04:18:58.360Z,7.10
2023-04-28T04:24:05.214Z,6.97
2023-04-28T04:28:57.953Z,6.47
2023-04-28T04:33:52.324Z,7.25
2023-04-28T04:38:47.961Z,6.95
2023-04-28T04:43:43.084Z,7.72
2023-04-28T04:48:36.619Z,6.93
2023-04-28T04:53:30.414Z,7.45
2023-04-28T04:58:23.759Z,6.95
2023-04-28T05:03:37.363Z,6.03
2023-04-28T05:08:30.740Z,5.97
2023-04-28T05:13:24.019Z,5.93
2023-04-28T05:18:23.274Z,6.50
2023-04-28T05:23:16.407Z,6.88
2023-04-28T05:28:11.197Z,5.85
2023-04-28T05:33:04.122Z,6.65
2023-04-28T05:37:58.316Z,8.15
2023-04-28T05:42:51.948Z,9.88
2023-04-28T05:47:45.644Z,8.02
2023-04-28T05:52:38.945Z,9.00
2023-04-28T05:57:38.913Z,9.05
2023-04-28T06:02:43.595Z,8.88
2023-04-28T06:07:38.102Z,9.32
2023-04-28T06:12:31.037Z,9.05
2023-04-28T06:17:24.785Z,9.77
2023-04-28T06:22:19.328Z,10.00
2023-04-28T06:27:13.347Z,9.85
2023-04-28T06:32:06.053Z,9.40
2023-04-28T06:37:02.017Z,10.63
2023-04-28T06:41:55.557Z,10.65
2023-04-28T06:46:50.022Z,11.18
2023-04-28T06:51:43.924Z,9.05
2023-04-28T06:56:37.207Z,9.25
2023-04-28T07:01:30.405Z,9.68
2023-04-28T07:06:23.326Z,8.55
2023-04-28T07:11:17.760Z,8.02
2023-04-28T07:16:14.243Z,8.07
2023-04-28T07:21:07.907Z,9.85
2023-04-28T07:26:03.349Z,9.23
2023-04-28T07:30:56.661Z,11.15
2023-04-28T07:35:50.176Z,12.65
2023-04-28T07:40:44.799Z,13.32
2023-04-28T07:45:40.402Z,12.13
2023-04-28T07:50:34.221Z,13.43
2023-04-28T07:55:27.613Z,14.45
2023-04-28T08:00:20.624Z,13.57
2023-04-28T08:05:14.912Z,12.70
2023-04-28T08:10:10.515Z,12.05
2023-04-28T08:15:04.001Z,14.75
2023-04-28T08:19:57.274Z,13.10
2023-04-28T08:24:50.594Z,14.32
2023-04-28T08:29:43.654Z,14.93
2023-04-28T08:34:36.106Z,13.82
2023-04-28T08:39:29.696Z,14.43
2023-04-28T08:44:24.277Z,13.90
2023-04-28T08:49:20.615Z,12.05
2023-04-28T08:54:26.544Z,10.35
2023-04-28T08:59:20.517Z,11.60
2023-04-28T09:04:14.814Z,13.35
2023-04-28T09:09:33.273Z,11.52
2023-04-28T09:14:29.498Z,12.68
2023-04-28T09:19:23.368Z,11.02
2023-04-28T09:24:41.058Z,10.15
2023-04-28T09:29:34.214Z,9.77
2023-04-28T09:34:28.717Z,9.38
2023-04-28T09:39:34.684Z,10.18
2023-04-28T09:44:28.358Z,9.83
2023-04-28T09:49:21.030Z,9.70
2023-04-28T09:54:14.164Z,10.52
2023-04-28T09:59:08.287Z,10.52
2023-04-28T10:04:04.027Z,10.55
2023-04-28T10:08:59.516Z,9.13
2023-04-28T10:13:54.426Z,7.90
2023-04-28T10:18:49.075Z,7.80
2023-04-28T10:24:00.646Z,7.90
2023-04-28T10:28:54.878Z,7.60
2023-04-28T10:33:48.492Z,8.20
2023-04-28T10:39:12.963Z,7.90
2023-04-28T10:44:30.463Z,6.57
2023-04-28T10:49:55.649Z,6.25
2023-04-28T10:55:26.432Z,8.25
2023-04-28T11:00:30.786Z,8.32
2023-04-28T11:05:23.985Z,8.27
2023-04-28T11:10:17.210Z,7.88
2023-04-28T11:15:13.936Z,8.07
2023-04-28T11:20:10.193Z,10.05
2023-04-28T11:25:05.068Z,11.48
2023-04-28T11:29:58.835Z,9.38
2023-04-28T11:34:52.876Z,10.48
2023-04-28T11:39:45.951Z,9.05
2023-04-28T11:44:39.974Z,8.68
2023-04-28T11:49:43.961Z,9.40
2023-04-28T11:54:37.286Z,9.52
2023-04-28T11:59:33.034Z,11.63
2023-04-28T12:04:42.749Z,8.10
2023-04-28T12:09:37.397Z,8.88
2023-04-28T12:14:32.427Z,8.82
2023-04-28T12:19:26.681Z,8.32
2023-04-28T12:24:25.183Z,8.05
2023-04-28T12:29:41.833Z,6.97
2023-04-28T12:34:37.010Z,5.28
2023-04-28T12:39:31.167Z,5.80
2023-04-28T12:44:24.688Z,4.97
2023-04-28T12:49:16.977Z,4.88
2023-04-28T12:54:10.260Z,4.15
2023-04-28T12:59:04.663Z,4.43
2023-04-28T13:03:58.455Z,4.43
2023-04-28T13:08:51.677Z,4.13
2023-04-28T13:13:45.315Z,3.47
2023-04-28T13:18:39.899Z,3.65
2023-04-28T13:23:32.645Z,4.65
2023-04-28T13:28:26.380Z,4.72
2023-04-28T13:33:19.534Z,4.15
2023-04-28T13:38:13.786Z,4.07
2023-04-28T13:43:07.428Z,4.80
2023-04-28T13:48:01.313Z,5.05
2023-04-28T13:52:54.767Z,5.80
2023-04-28T13:57:48.531Z,4.45
2023-04-28T14:02:42.089Z,6.47
2023-04-28T14:07:35.324Z,5.05
2023-04-28T14:12:29.308Z,5.30
2023-04-28T14:17:23.125Z,5.03
2023-04-28T14:22:16.924Z,6.00
2023-04-28T14:27:10.572Z,5.38
2023-04-28T14:32:04.208Z,7.28
2023-04-28T14:36:57.818Z,7.32
2023-04-28T14:41:51.275Z,6.03
2023-04-28T14:46:45.200Z,6.13
2023-04-28T14:51:39.178Z,6.57
2023-04-28T14:56:33.900Z,7.47
2023-04-28T15:01:27.174Z,6.45
2023-04-28T15:06:20.153Z,7.30
2023-04-28T15:11:13.049Z,7.07
2023-04-28T15:16:07.507Z,8.70
2023-04-28T15:21:01.841Z,7.32
2023-04-28T15:25:55.516Z,7.22
2023-04-28T15:30:49.139Z,8.18
2023-04-28T15:35:43.022Z,7.70
2023-04-28T15:40:37.316Z,8.95
2023-04-28T15:45:31.037Z,7.25
2023-04-28T15:50:24.407Z,5.82
2023-04-28T15:55:19.196Z,5.75
2023-04-28T16:00:15.764Z,6.47
2023-04-28T16:05:09.783Z,6.45
2023-04-28T16:10:03.234Z,6.90
2023-04-28T16:14:56.309Z,6.32
2023-04-28T16:19:51.194Z,5.70
2023-04-28T16:24:49.645Z,5.75
2023-04-28T16:29:44.495Z,5.32
2023-04-28T16:34:37.520Z,4.70
2023-04-28T16:39:32.304Z,5.20
2023-04-28T16:44:26.159Z,4.65
2023-04-28T16:49:20.324Z,6.97
2023-04-28T16:54:13.585Z,6.63
2023-04-28T16:59:07.942Z,6.65
2023-04-28T17:04:03.540Z,5.32
2023-04-28T17:08:57.401Z,4.68
2023-04-28T17:13:51.323Z,5.35
2023-04-28T17:18:45.717Z,5.18
2023-04-28T17:23:39.994Z,5.80
2023-04-28T17:28:33.952Z,6.00
2023-04-28T17:33:27.020Z,5.38
2023-04-28T17:38:20.971Z,5.78
2023-04-28T17:43:14.854Z,5.05
2023-04-28T17:48:08.535Z,5.93
2023-04-28T17:53:01.969Z,6.03
2023-04-28T17:57:55.178Z,5.60
2023-04-28T18:02:48.876Z,5.95
2023-04-28T18:07:42.880Z,5.97
2023-04-28T18:12:35.739Z,5.13
2023-04-28T18:17:29.962Z,6.90
2023-04-28T18:22:23.776Z,5.47
2023-04-28T18:27:17.449Z,6.95
2023-04-28T18:32:14.481Z,7.75
2023-04-28T18:37:08.161Z,7.10
2023-04-28T18:42:02.097Z,7.20
2023-04-28T18:46:54.729Z,6.50
2023-04-28T18:51:47.547Z,7.38
2023-04-28T18:56:41.500Z,8.23
2023-04-28T19:01:35.667Z,8.55
2023-04-28T19:06:30.479Z,8.00
2023-04-28T19:11:25.000Z,8.30
2023-04-28T19:16:18.740Z,8.32
2023-04-28T19:21:12.844Z,7.80
2023-04-28T19:26:07.211Z,7.57
2023-04-28T19:31:00.960Z,8.43
2023-04-28T19:35:55.252Z,7.35
2023-04-28T19:40:50.608Z,9.07
2023-04-28T19:45:44.545Z,8.10
2023-04-28T19:50:38.933Z,9.13
2023-04-28T19:55:32.620Z,7.97
2023-04-28T20:00:26.249Z,8.32
2023-04-28T20:05:39.637Z,8.90
2023-04-28T20:10:33.567Z,8.95
2023-04-28T20:15:31.362Z,9.23
2023-04-28T20:20:26.125Z,10.20
2023-04-28T20:25:20.486Z,9.82
2023-04-28T20:30:13.714Z,9.70
2023-04-28T20:35:07.195Z,10.18
2023-04-28T20:40:00.442Z,9.15
2023-04-28T20:44:53.625Z,8.23
2023-04-28T20:49:47.495Z,9.57
2023-04-28T20:54:44.086Z,7.82
2023-04-28T20:59:37.533Z,8.02
2023-04-28T21:04:31.172Z,8.20
2023-04-28T21:09:25.798Z,8.43
2023-04-28T21:14:19.785Z,8.10
2023-04-28T21:19:13.351Z,8.88
2023-04-28T21:24:13.320Z,8.98
2023-04-28T21:29:09.724Z,8.95
2023-04-28T21:34:08.371Z,10.00
2023-04-28T21:39:00.684Z,11.43
2023-04-28T21:43:55.921Z,10.02
2023-04-28T21:48:49.060Z,9.70
2023-04-28T21:53:43.414Z,10.90
2023-04-28T21:58:37.314Z,9.82
2023-04-28T22:03:31.010Z,10.95
2023-04-28T22:08:28.041Z,10.48
2023-04-28T22:13:23.550Z,9.85
2023-04-28T22:18:18.065Z,10.10
2023-04-28T22:23:12.208Z,10.15
2023-04-28T22:28:06.194Z,10.90
2023-04-28T22:33:00.110Z,10.05
2023-04-28T22:37:54.265Z,10.57
2023-04-28T22:42:47.531Z,10.57
2023-04-28T22:47:45.940Z,10.77
2023-04-28T22:52:39.494Z,11.73
2023-04-28T22:57:31.800Z,10.82
2023-04-28T23:02:25.592Z,11.23
2023-04-28T23:07:19.516Z,10.90
2023-04-28T23:12:13.108Z,10.50
2023-04-28T23:17:06.122Z,10.73
2023-04-28T23:21:59.883Z,10.95
2023-04-28T23:26:53.023Z,11.90
2023-04-28T23:31:52.786Z,11.65
2023-04-28T23:36:46.817Z,10.75
2023-04-28T23:41:40.653Z,11.10
2023-04-28T23:46:33.760Z,11.10
2023-04-28T23:51:27.418Z,10.68
2023-04-28T23:56:20.683Z,10.07
